KCXP

Carson Airport

Carson City, Nevada, USA
METAR KCXP 101535Z AUTO 21003KT 7SM OVC004 M03/M04 A3024 RMK AO2
Observed Flight Rules
Dec-10 @ 15:35 UTC (37 minutes ago) Instrument Flight Rules
Wind Visibility Clouds
210° at 3 knots 7 miles
  • Overcast at 400' AGL
Temperatures Readings
Current -3°C / 27°F
Dewpoint -4°C / 25°F
Humidity 93%
Altimeter 30.24" Hg
Pressure 1024 hPa
Elevation 1435
METAR KCXP 101535Z AUTO 21003KT 7SM OVC004 M03/M04 A3024 RMK AO2
Observed Flight Rules
Dec-10 @ 15:35 UTC
(37 minutes ago)
LIFR
Wind Visibility
210° at 3 knots 7 miles
Clouds
  • Overcast at 400' AGL
Temperature Dewpoint
-3°C / 27°F -4°C / 25°F
Humidity Altimeter Pressure
93% 30.24" Hg 1024 hPa